AAL126 KMEM-KATL
Flight info
| Callsign | AAL126 |
|---|---|
| Flight time | 0h 49m |
| Altitude | 35000 |
| Route | BBKNG7 KERMI HUTCC KNSAW RUSSA GLAVN2 |
| Aircraft | A321/M-SDE3FGHIRWY/LB1 |
Departure
| Time | 2026-05-07 02:13 |
|---|---|
| Airport | Memphis International Airport (KMEM) |
Arrival
| Time | 2026-05-07 03:03 |
|---|---|
| Airport | Hartsfield Jackson Atlanta International Airport (KATL) |
| Time | Latitude | Longitude | Altitude | Speed | Heading |
|---|---|---|---|---|---|
| 2026-05-07 01:51 | 35.04102 | -89.97913 | 312 ft | 0 kts | 265° |
| 2026-05-07 02:02 | 35.04102 | -89.97900 | 312 ft | 4 kts | 266° |
| 2026-05-07 02:03 | 35.04104 | -89.97867 | 311 ft | 4 kts | 262° |
| 2026-05-07 02:03 | 35.04111 | -89.97840 | 312 ft | 4 kts | 208° |
| 2026-05-07 02:03 | 35.04117 | -89.97837 | 312 ft | 0 kts | 180° |
| 2026-05-07 02:07 | 35.04105 | -89.97837 | 312 ft | 6 kts | 180° |
| 2026-05-07 02:07 | 35.03878 | -89.97835 | 311 ft | 27 kts | 179° |
| 2026-05-07 02:07 | 35.03655 | -89.97829 | 305 ft | 37 kts | 178° |
| 2026-05-07 02:08 | 35.03458 | -89.97826 | 302 ft | 15 kts | 179° |
| 2026-05-07 02:08 | 35.03341 | -89.97824 | 303 ft | 18 kts | 179° |
| 2026-05-07 02:08 | 35.03213 | -89.97820 | 301 ft | 19 kts | 179° |
| 2026-05-07 02:08 | 35.03080 | -89.97817 | 304 ft | 19 kts | 179° |
| 2026-05-07 02:09 | 35.02945 | -89.97816 | 306 ft | 20 kts | 179° |
| 2026-05-07 02:09 | 35.02802 | -89.97812 | 307 ft | 21 kts | 179° |
| 2026-05-07 02:09 | 35.02682 | -89.97810 | 304 ft | 15 kts | 180° |
| 2026-05-07 02:09 | 35.02570 | -89.97808 | 304 ft | 18 kts | 178° |
| 2026-05-07 02:10 | 35.02452 | -89.97804 | 302 ft | 17 kts | 177° |
| 2026-05-07 02:10 | 35.02414 | -89.97718 | 300 ft | 13 kts | 89° |
| 2026-05-07 02:10 | 35.02415 | -89.97678 | 295 ft | 2 kts | 87° |
| 2026-05-07 02:10 | 35.02415 | -89.97671 | 295 ft | 0 kts | 87° |
| 2026-05-07 02:12 | 35.02415 | -89.97665 | 297 ft | 4 kts | 87° |
| 2026-05-07 02:12 | 35.02424 | -89.97587 | 294 ft | 14 kts | 61° |
| 2026-05-07 02:12 | 35.02490 | -89.97556 | 298 ft | 0 kts | 359° |
| 2026-05-07 02:13 | 35.02625 | -89.97558 | 300 ft | 58 kts | 359° |
| 2026-05-07 02:13 | 35.03303 | -89.97570 | 301 ft | 133 kts | 359° |
| 2026-05-07 02:13 | 35.04368 | -89.97590 | 700 ft | 159 kts | 360° |
| 2026-05-07 02:13 | 35.05462 | -89.97634 | 1635 ft | 155 kts | 1° |
| 2026-05-07 02:14 | 35.06544 | -89.97689 | 2454 ft | 157 kts | 3° |
| 2026-05-07 02:14 | 35.07657 | -89.97418 | 2793 ft | 174 kts | 26° |
| 2026-05-07 02:14 | 35.08765 | -89.96655 | 3092 ft | 196 kts | 30° |
| 2026-05-07 02:14 | 35.10014 | -89.95774 | 3331 ft | 219 kts | 30° |
| 2026-05-07 02:15 | 35.11415 | -89.94786 | 3657 ft | 244 kts | 29° |
| 2026-05-07 02:15 | 35.12924 | -89.93703 | 4213 ft | 258 kts | 32° |
| 2026-05-07 02:15 | 35.14120 | -89.92009 | 4832 ft | 274 kts | 66° |
| 2026-05-07 02:15 | 35.14519 | -89.89686 | 5418 ft | 286 kts | 86° |
| 2026-05-07 02:16 | 35.14523 | -89.87217 | 6061 ft | 295 kts | 94° |
| 2026-05-07 02:16 | 35.14367 | -89.84672 | 6688 ft | 303 kts | 97° |
| 2026-05-07 02:16 | 35.13884 | -89.82188 | 7313 ft | 306 kts | 114° |
| 2026-05-07 02:16 | 35.13116 | -89.79737 | 7992 ft | 311 kts | 113° |
| 2026-05-07 02:17 | 35.12424 | -89.77208 | 8718 ft | 316 kts | 111° |
| 2026-05-07 02:17 | 35.11759 | -89.74628 | 9421 ft | 320 kts | 114° |
| 2026-05-07 02:17 | 35.10881 | -89.72114 | 10091 ft | 323 kts | 118° |
| 2026-05-07 02:17 | 35.09928 | -89.69537 | 10343 ft | 344 kts | 119° |
| 2026-05-07 02:18 | 35.08890 | -89.66795 | 10544 ft | 364 kts | 119° |
| 2026-05-07 02:18 | 35.07807 | -89.63957 | 11041 ft | 372 kts | 120° |
| 2026-05-07 02:18 | 35.06707 | -89.61075 | 11628 ft | 377 kts | 120° |
| 2026-05-07 02:18 | 35.05592 | -89.58151 | 12230 ft | 381 kts | 120° |
| 2026-05-07 02:19 | 35.04481 | -89.55237 | 12831 ft | 386 kts | 120° |
| 2026-05-07 02:19 | 35.03340 | -89.52247 | 13429 ft | 391 kts | 121° |
| 2026-05-07 02:19 | 35.02179 | -89.49216 | 14003 ft | 396 kts | 121° |
| 2026-05-07 02:19 | 35.01005 | -89.46154 | 14529 ft | 400 kts | 122° |
| 2026-05-07 02:20 | 34.99815 | -89.43050 | 15052 ft | 405 kts | 122° |
| 2026-05-07 02:20 | 34.98614 | -89.39918 | 15552 ft | 410 kts | 122° |
| 2026-05-07 02:20 | 34.97397 | -89.36748 | 16083 ft | 414 kts | 122° |
| 2026-05-07 02:20 | 34.96181 | -89.33585 | 16585 ft | 419 kts | 123° |
| 2026-05-07 02:21 | 34.94937 | -89.30358 | 17086 ft | 424 kts | 123° |
| 2026-05-07 02:21 | 34.93677 | -89.27088 | 17557 ft | 429 kts | 123° |
| 2026-05-07 02:21 | 34.92403 | -89.23781 | 18030 ft | 434 kts | 123° |
| 2026-05-07 02:21 | 34.91326 | -89.20275 | 18421 ft | 449 kts | 112° |
| 2026-05-07 02:22 | 34.90637 | -89.16524 | 18819 ft | 456 kts | 107° |
| 2026-05-07 02:22 | 34.89984 | -89.12731 | 19257 ft | 459 kts | 108° |
| 2026-05-07 02:22 | 34.89331 | -89.08913 | 19724 ft | 462 kts | 108° |
| 2026-05-07 02:22 | 34.88680 | -89.05073 | 20190 ft | 464 kts | 107° |
| 2026-05-07 02:23 | 34.88026 | -89.01200 | 20635 ft | 467 kts | 107° |
| 2026-05-07 02:23 | 34.87368 | -88.97306 | 21093 ft | 470 kts | 107° |
| 2026-05-07 02:23 | 34.86709 | -88.93400 | 21526 ft | 472 kts | 107° |
| 2026-05-07 02:23 | 34.86047 | -88.89470 | 21967 ft | 475 kts | 107° |
| 2026-05-07 02:24 | 34.85383 | -88.85565 | 22392 ft | 477 kts | 108° |
| 2026-05-07 02:24 | 34.84700 | -88.81595 | 22792 ft | 481 kts | 108° |
| 2026-05-07 02:24 | 34.84010 | -88.77599 | 23196 ft | 484 kts | 108° |
| 2026-05-07 02:24 | 34.83316 | -88.73580 | 23601 ft | 486 kts | 108° |
| 2026-05-07 02:25 | 34.82619 | -88.69544 | 23939 ft | 489 kts | 108° |
| 2026-05-07 02:25 | 34.81916 | -88.65485 | 24282 ft | 491 kts | 108° |
| 2026-05-07 02:25 | 34.81207 | -88.61396 | 24617 ft | 494 kts | 108° |
| 2026-05-07 02:25 | 34.80497 | -88.57296 | 24959 ft | 496 kts | 108° |
| 2026-05-07 02:26 | 34.79779 | -88.53168 | 25288 ft | 499 kts | 108° |
| 2026-05-07 02:26 | 34.79065 | -88.49079 | 25619 ft | 501 kts | 108° |
| 2026-05-07 02:26 | 34.78335 | -88.44914 | 25943 ft | 504 kts | 108° |
| 2026-05-07 02:26 | 34.77600 | -88.40727 | 26264 ft | 506 kts | 108° |
| 2026-05-07 02:27 | 34.76863 | -88.36528 | 26589 ft | 509 kts | 108° |
| 2026-05-07 02:27 | 34.76118 | -88.32291 | 26899 ft | 511 kts | 109° |
| 2026-05-07 02:27 | 34.75379 | -88.28100 | 27209 ft | 514 kts | 109° |
| 2026-05-07 02:27 | 34.74627 | -88.23844 | 27520 ft | 516 kts | 109° |
| 2026-05-07 02:28 | 34.73868 | -88.19560 | 27828 ft | 518 kts | 109° |
| 2026-05-07 02:28 | 34.73108 | -88.15265 | 28141 ft | 521 kts | 109° |
| 2026-05-07 02:28 | 34.72404 | -88.10915 | 28440 ft | 525 kts | 107° |
| 2026-05-07 02:28 | 34.71785 | -88.06512 | 28658 ft | 529 kts | 106° |
| 2026-05-07 02:29 | 34.71225 | -88.02087 | 28967 ft | 532 kts | 105° |
| 2026-05-07 02:29 | 34.70683 | -87.97626 | 29261 ft | 534 kts | 105° |
| 2026-05-07 02:29 | 34.70132 | -87.93143 | 29570 ft | 536 kts | 105° |
| 2026-05-07 02:29 | 34.69564 | -87.88715 | 29861 ft | 538 kts | 106° |
| 2026-05-07 02:30 | 34.68963 | -87.84212 | 30134 ft | 540 kts | 107° |
| 2026-05-07 02:30 | 34.68343 | -87.79710 | 30379 ft | 541 kts | 107° |
| 2026-05-07 02:30 | 34.67708 | -87.75184 | 30607 ft | 543 kts | 107° |
| 2026-05-07 02:30 | 34.67069 | -87.70648 | 30836 ft | 545 kts | 107° |
| 2026-05-07 02:31 | 34.66431 | -87.66095 | 31025 ft | 548 kts | 107° |
| 2026-05-07 02:31 | 34.65796 | -87.61520 | 31224 ft | 550 kts | 107° |
| 2026-05-07 02:31 | 34.65157 | -87.56922 | 31438 ft | 552 kts | 107° |
| 2026-05-07 02:31 | 34.64518 | -87.52310 | 31593 ft | 554 kts | 107° |
| 2026-05-07 02:32 | 34.63887 | -87.47753 | 31332 ft | 553 kts | 107° |
| 2026-05-07 02:32 | 34.63251 | -87.43171 | 31062 ft | 549 kts | 107° |
| 2026-05-07 02:32 | 34.62561 | -87.38619 | 30847 ft | 545 kts | 109° |
| 2026-05-07 02:32 | 34.61786 | -87.34142 | 30650 ft | 541 kts | 110° |
| 2026-05-07 02:33 | 34.60941 | -87.29692 | 30522 ft | 538 kts | 110° |
| 2026-05-07 02:33 | 34.60070 | -87.25289 | 30488 ft | 537 kts | 111° |
| 2026-05-07 02:33 | 34.59190 | -87.20870 | 30733 ft | 538 kts | 111° |
| 2026-05-07 02:33 | 34.58336 | -87.16478 | 30977 ft | 541 kts | 110° |
| 2026-05-07 02:34 | 34.57492 | -87.12020 | 31182 ft | 543 kts | 110° |
| 2026-05-07 02:34 | 34.56669 | -87.07536 | 31400 ft | 546 kts | 109° |
| 2026-05-07 02:34 | 34.55882 | -87.03021 | 31595 ft | 548 kts | 109° |
| 2026-05-07 02:34 | 34.55118 | -86.98482 | 31811 ft | 549 kts | 109° |
| 2026-05-07 02:35 | 34.54339 | -86.93934 | 31962 ft | 547 kts | 111° |
| 2026-05-07 02:35 | 34.53290 | -86.89529 | 32004 ft | 542 kts | 115° |
| 2026-05-07 02:35 | 34.51431 | -86.82262 | 31997 ft | 541 kts | 116° |
| 2026-05-07 02:36 | 34.49186 | -86.73656 | 32005 ft | 522 kts | 116° |
| 2026-05-07 02:36 | 34.48113 | -86.69527 | 31984 ft | 506 kts | 116° |
| 2026-05-07 02:36 | 34.47056 | -86.65475 | 31990 ft | 501 kts | 117° |
| 2026-05-07 02:37 | 34.44948 | -86.57504 | 31972 ft | 498 kts | 117° |
| 2026-05-07 02:37 | 34.42829 | -86.49513 | 31975 ft | 498 kts | 116° |
| 2026-05-07 02:38 | 34.40743 | -86.41572 | 31980 ft | 490 kts | 115° |
| 2026-05-07 02:38 | 34.38674 | -86.33730 | 31990 ft | 488 kts | 115° |
| 2026-05-07 02:39 | 34.36593 | -86.25897 | 31996 ft | 488 kts | 115° |
| 2026-05-07 02:39 | 34.34514 | -86.18086 | 31955 ft | 488 kts | 115° |
| 2026-05-07 02:40 | 34.32448 | -86.10313 | 31948 ft | 489 kts | 114° |
| 2026-05-07 02:40 | 34.30424 | -86.02460 | 31955 ft | 489 kts | 114° |
| 2026-05-07 02:41 | 34.28409 | -85.94591 | 31946 ft | 489 kts | 114° |
| 2026-05-07 02:41 | 34.26363 | -85.86739 | 31953 ft | 489 kts | 114° |
| 2026-05-07 02:42 | 34.24320 | -85.78961 | 31943 ft | 488 kts | 114° |
| 2026-05-07 02:42 | 34.22269 | -85.71126 | 31946 ft | 488 kts | 114° |
| 2026-05-07 02:43 | 34.20221 | -85.63308 | 31560 ft | 490 kts | 114° |
| 2026-05-07 02:43 | 34.19157 | -85.59315 | 30130 ft | 509 kts | 113° |
| 2026-05-07 02:43 | 34.18043 | -85.55159 | 28355 ft | 531 kts | 113° |
| 2026-05-07 02:44 | 34.16911 | -85.50898 | 27705 ft | 527 kts | 112° |
| 2026-05-07 02:44 | 34.15823 | -85.46728 | 27573 ft | 510 kts | 112° |
| 2026-05-07 02:44 | 34.14790 | -85.42744 | 27442 ft | 495 kts | 112° |
| 2026-05-07 02:44 | 34.13754 | -85.38771 | 27090 ft | 485 kts | 112° |
| 2026-05-07 02:45 | 34.12758 | -85.34966 | 26736 ft | 476 kts | 112° |
| 2026-05-07 02:45 | 34.11777 | -85.31196 | 26418 ft | 468 kts | 111° |
| 2026-05-07 02:45 | 34.10812 | -85.27477 | 26137 ft | 459 kts | 111° |
| 2026-05-07 02:45 | 34.09869 | -85.23832 | 25895 ft | 450 kts | 111° |
| 2026-05-07 02:46 | 34.08942 | -85.20258 | 25635 ft | 442 kts | 111° |
| 2026-05-07 02:46 | 34.08022 | -85.16725 | 25222 ft | 439 kts | 112° |
| 2026-05-07 02:46 | 34.07108 | -85.13224 | 24840 ft | 436 kts | 112° |
| 2026-05-07 02:46 | 34.06202 | -85.09803 | 24428 ft | 431 kts | 115° |
| 2026-05-07 02:47 | 34.04942 | -85.06517 | 24098 ft | 421 kts | 128° |
| 2026-05-07 02:47 | 34.03258 | -85.03655 | 23931 ft | 419 kts | 137° |
| 2026-05-07 02:47 | 34.01239 | -85.01199 | 23371 ft | 414 kts | 148° |
| 2026-05-07 02:47 | 33.99056 | -84.98945 | 22727 ft | 415 kts | 147° |
| 2026-05-07 02:48 | 33.96859 | -84.96674 | 22090 ft | 416 kts | 147° |
| 2026-05-07 02:48 | 33.94666 | -84.94408 | 21458 ft | 416 kts | 147° |
| 2026-05-07 02:48 | 33.92471 | -84.92138 | 20841 ft | 416 kts | 146° |
| 2026-05-07 02:48 | 33.90276 | -84.89864 | 20236 ft | 415 kts | 146° |
| 2026-05-07 02:49 | 33.88092 | -84.87590 | 19650 ft | 415 kts | 146° |
| 2026-05-07 02:49 | 33.85914 | -84.85315 | 19070 ft | 413 kts | 146° |
| 2026-05-07 02:49 | 33.83740 | -84.83059 | 18477 ft | 412 kts | 145° |
| 2026-05-07 02:49 | 33.81596 | -84.80858 | 17843 ft | 410 kts | 145° |
| 2026-05-07 02:50 | 33.79422 | -84.78643 | 17197 ft | 408 kts | 145° |
| 2026-05-07 02:50 | 33.77269 | -84.76462 | 16485 ft | 401 kts | 146° |
| 2026-05-07 02:50 | 33.75183 | -84.74346 | 15783 ft | 383 kts | 145° |
| 2026-05-07 02:50 | 33.73195 | -84.72320 | 15116 ft | 366 kts | 145° |
| 2026-05-07 02:51 | 33.71287 | -84.70370 | 14462 ft | 352 kts | 145° |
| 2026-05-07 02:51 | 33.69455 | -84.68499 | 13831 ft | 341 kts | 145° |
| 2026-05-07 02:51 | 33.67672 | -84.66667 | 13107 ft | 335 kts | 144° |
| 2026-05-07 02:51 | 33.66202 | -84.64489 | 12417 ft | 341 kts | 121° |
| 2026-05-07 02:52 | 33.65516 | -84.61797 | 11743 ft | 345 kts | 97° |
| 2026-05-07 02:52 | 33.65724 | -84.58940 | 11061 ft | 344 kts | 72° |
| 2026-05-07 02:52 | 33.66605 | -84.56276 | 10402 ft | 344 kts | 65° |
| 2026-05-07 02:52 | 33.67608 | -84.53688 | 9739 ft | 339 kts | 64° |
| 2026-05-07 02:53 | 33.68616 | -84.51150 | 9025 ft | 333 kts | 64° |
| 2026-05-07 02:53 | 33.69607 | -84.48660 | 8336 ft | 330 kts | 64° |
| 2026-05-07 02:53 | 33.70410 | -84.46117 | 7652 ft | 323 kts | 82° |
| 2026-05-07 02:53 | 33.70648 | -84.43501 | 6991 ft | 317 kts | 89° |
| 2026-05-07 02:54 | 33.70788 | -84.40866 | 6334 ft | 315 kts | 89° |
| 2026-05-07 02:54 | 33.70917 | -84.38258 | 5644 ft | 311 kts | 91° |
| 2026-05-07 02:54 | 33.70786 | -84.35713 | 4932 ft | 301 kts | 102° |
| 2026-05-07 02:54 | 33.70752 | -84.33201 | 4271 ft | 301 kts | 91° |
| 2026-05-07 02:55 | 33.70932 | -84.30754 | 4028 ft | 285 kts | 89° |
| 2026-05-07 02:55 | 33.71141 | -84.28469 | 3969 ft | 266 kts | 88° |
| 2026-05-07 02:55 | 33.71334 | -84.26329 | 3974 ft | 253 kts | 89° |
| 2026-05-07 02:55 | 33.71520 | -84.24233 | 3991 ft | 252 kts | 89° |
| 2026-05-07 02:56 | 33.71706 | -84.22128 | 3965 ft | 253 kts | 89° |
| 2026-05-07 02:56 | 33.71668 | -84.20036 | 3959 ft | 243 kts | 111° |
| 2026-05-07 02:56 | 33.70878 | -84.18408 | 3967 ft | 217 kts | 146° |
| 2026-05-07 02:56 | 33.69628 | -84.17630 | 3978 ft | 202 kts | 170° |
| 2026-05-07 02:57 | 33.68280 | -84.17227 | 3971 ft | 197 kts | 173° |
| 2026-05-07 02:57 | 33.66940 | -84.16882 | 3971 ft | 192 kts | 174° |
| 2026-05-07 02:57 | 33.65676 | -84.16550 | 3970 ft | 181 kts | 174° |
| 2026-05-07 02:57 | 33.64455 | -84.16242 | 3972 ft | 180 kts | 180° |
| 2026-05-07 02:58 | 33.63340 | -84.16624 | 3969 ft | 169 kts | 225° |
| 2026-05-07 02:58 | 33.62936 | -84.17910 | 3786 ft | 175 kts | 270° |
| 2026-05-07 02:58 | 33.63495 | -84.19213 | 3582 ft | 173 kts | 299° |
| 2026-05-07 02:58 | 33.64104 | -84.20351 | 3409 ft | 154 kts | 291° |
| 2026-05-07 02:59 | 33.64546 | -84.21484 | 3033 ft | 147 kts | 278° |
| 2026-05-07 02:59 | 33.64756 | -84.22677 | 3015 ft | 151 kts | 269° |
| 2026-05-07 02:59 | 33.64861 | -84.23958 | 3011 ft | 155 kts | 264° |
| 2026-05-07 02:59 | 33.64909 | -84.25255 | 3007 ft | 156 kts | 263° |
| 2026-05-07 03:00 | 33.64930 | -84.26544 | 3011 ft | 155 kts | 260° |
| 2026-05-07 03:00 | 33.64940 | -84.27843 | 2980 ft | 157 kts | 263° |
| 2026-05-07 03:00 | 33.64945 | -84.29150 | 2872 ft | 156 kts | 261° |
| 2026-05-07 03:00 | 33.64948 | -84.30437 | 2703 ft | 153 kts | 262° |
| 2026-05-07 03:01 | 33.64949 | -84.31713 | 2534 ft | 153 kts | 262° |
| 2026-05-07 03:01 | 33.64952 | -84.32991 | 2363 ft | 153 kts | 262° |
| 2026-05-07 03:01 | 33.64946 | -84.34263 | 2208 ft | 150 kts | 263° |
| 2026-05-07 03:01 | 33.64950 | -84.35517 | 1968 ft | 151 kts | 264° |
| 2026-05-07 03:02 | 33.64949 | -84.36765 | 1722 ft | 151 kts | 265° |
| 2026-05-07 03:02 | 33.64948 | -84.38014 | 1529 ft | 149 kts | 268° |
| 2026-05-07 03:02 | 33.64944 | -84.39239 | 1353 ft | 144 kts | 267° |
| 2026-05-07 03:02 | 33.64954 | -84.40413 | 1131 ft | 138 kts | 268° |
| 2026-05-07 03:03 | 33.64953 | -84.41504 | 1008 ft | 122 kts | 271° |
| 2026-05-07 03:03 | 33.64955 | -84.42408 | 1007 ft | 91 kts | 270° |
| 2026-05-07 03:03 | 33.64955 | -84.43004 | 1006 ft | 46 kts | 269° |
| 2026-05-07 03:03 | 33.64896 | -84.43255 | 1007 ft | 19 kts | 242° |
| 2026-05-07 03:04 | 33.64853 | -84.43305 | 1007 ft | 0 kts | 199° |
| 2026-05-07 03:04 | 33.64848 | -84.43307 | 1007 ft | 2 kts | 199° |
| 2026-05-07 03:04 | 33.64845 | -84.43308 | 1007 ft | 0 kts | 199° |
| 2026-05-07 03:05 | 33.64819 | -84.43307 | 1007 ft | 7 kts | 165° |
| 2026-05-07 03:06 | 33.64788 | -84.43224 | 1007 ft | 16 kts | 95° |
| 2026-05-07 03:06 | 33.64780 | -84.43120 | 1007 ft | 8 kts | 102° |
| 2026-05-07 03:06 | 33.64786 | -84.43045 | 1007 ft | 12 kts | 81° |
| 2026-05-07 03:06 | 33.64776 | -84.42911 | 1007 ft | 20 kts | 125° |
| 2026-05-07 03:07 | 33.64640 | -84.42853 | 1008 ft | 19 kts | 158° |
| 2026-05-07 03:07 | 33.64555 | -84.42813 | 1007 ft | 8 kts | 195° |
| 2026-05-07 03:07 | 33.64537 | -84.42878 | 1007 ft | 9 kts | 269° |
| 2026-05-07 03:07 | 33.64535 | -84.42982 | 1007 ft | 16 kts | 269° |
| 2026-05-07 03:08 | 33.64541 | -84.43145 | 1007 ft | 23 kts | 271° |
| 2026-05-07 03:08 | 33.64539 | -84.43354 | 1007 ft | 24 kts | 264° |
| 2026-05-07 03:08 | 33.64393 | -84.43437 | 1007 ft | 22 kts | 183° |
| 2026-05-07 03:08 | 33.64247 | -84.43421 | 1006 ft | 17 kts | 159° |
| 2026-05-07 03:09 | 33.64201 | -84.43381 | 1006 ft | 1 kts | 126° |
| 2026-05-07 03:09 | 33.64188 | -84.43376 | 1006 ft | 3 kts | 171° |
| 2026-05-07 03:09 | 33.64160 | -84.43373 | 1006 ft | 5 kts | 140° |
| 2026-05-07 03:09 | 33.64152 | -84.43333 | 1007 ft | 2 kts | 94° |
| 2026-05-07 03:10 | 33.64152 | -84.43322 | 1006 ft | 0 kts | 92° |